Cebu, Philippines

4:50 PM PHT on July 25, 2016 (GMT +0800)
Bankal, Lapu-Lapu City | | Change Station

Elev 10 ft 10.31 °N, 123.99 °E | Updated 3 minutes ago

Mostly Cloudy
Mostly Cloudy
86.3 °F
Feels Like 98 °F
N
4.0
Wind Variable Wind from South
Gusts 7.0 mph

Today
High -- | Low -- °F
--% Chance of Precip.
Yesterday
High -- | Low -- °F
Precip. -- in
Pressure 29.74 in
Visibility 6.2 miles
Clouds Few 1800 ft
Mostly Cloudy 30000 ft
Heat Index 98 °F
Dew Point 78 °F
Humidity 75%
Rainfall 0.00 in
Snow Depth Not available.
5:32 AM 6:09 PM
Waning Gibbous, 68% visible
METAR RPVM 250800Z 15007KT 120V190 9999 FEW018CB BKN300 32/24 Q1007 A2976 CB S
Pressure 29.74 in
Visibility 6.2 miles
Clouds Few 1800 ft
Mostly Cloudy 30000 ft
Heat Index 98 °F
Dew Point 78 °F
Humidity 75%
Rainfall 0.00 in
Snow Depth Not available.
5:32 AM 6:09 PM
Waning Gibbous, 68% visible
METAR RPVM 250800Z 15007KT 120V190 9999 FEW018CB BKN300 32/24 Q1007 A2976 CB S

10-Day Weather Forecast

No radar image for this location.
×

Almanac

Astronomy

Jul. 25, 2016 Rise Set
Actual Time
Civil Twilight
Nautical Twilight
Astronomical Twilight
Moon
Length of Visible Light
Length of Day
Tomorrow will be .
, % of the Moon is Illuminated

Today's Extremes

Country Highs Country Lows

Community

WunderPhotos

Upload Photos

1,927,274 photos uploaded!

WunderBlog® & News

Nearby

Air Quality

  Air Quality AQ Index Pollutant
Not available.

Snow Depth

Station Depth Elevation

Earthquake Activity

City Distance Mag. Time & Date
Minimum magnitude displayed is 2.5.

Coastal Water Temperatures

Place Temperature

Stations

Nearby Weather Stations

Station Location Temp. Windchill Dew Point Humidity Wind Precip. Elev Updated Type